sensor_id;sensor_type;location;lat;lon;timestamp;P1;durP1;ratioP1;P2;durP2;ratioP2
79414;SDS011;68864;44.972;19.612;2023-06-14T00:01:49;3.53;;;1.55;;
79414;SDS011;68864;44.972;19.612;2023-06-14T00:04:16;4.43;;;2.00;;
79414;SDS011;68864;44.972;19.612;2023-06-14T00:06:43;3.63;;;1.60;;
79414;SDS011;68864;44.972;19.612;2023-06-14T00:09:11;3.72;;;1.42;;
79414;SDS011;68864;44.972;19.612;2023-06-14T00:11:40;3.00;;;0.75;;
79414;SDS011;68864;44.972;19.612;2023-06-14T00:14:07;3.13;;;1.55;;
79414;SDS011;68864;44.972;19.612;2023-06-14T00:16:34;3.00;;;0.52;;
79414;SDS011;68864;44.972;19.612;2023-06-14T00:19:02;7.40;;;2.45;;
79414;SDS011;68864;44.972;19.612;2023-06-14T00:21:29;3.65;;;1.63;;
79414;SDS011;68864;44.972;19.612;2023-06-14T00:23:57;3.10;;;1.58;;
79414;SDS011;68864;44.972;19.612;2023-06-14T00:26:24;4.20;;;1.25;;
79414;SDS011;68864;44.972;19.612;2023-06-14T00:28:53;4.18;;;1.10;;
79414;SDS011;68864;44.972;19.612;2023-06-14T00:31:20;3.90;;;1.40;;
79414;SDS011;68864;44.972;19.612;2023-06-14T00:33:46;6.95;;;1.92;;
79414;SDS011;68864;44.972;19.612;2023-06-14T00:36:14;4.28;;;1.63;;
79414;SDS011;68864;44.972;19.612;2023-06-14T00:38:41;4.53;;;1.05;;
79414;SDS011;68864;44.972;19.612;2023-06-14T00:41:07;5.72;;;1.10;;
79414;SDS011;68864;44.972;19.612;2023-06-14T00:43:34;5.18;;;1.48;;
79414;SDS011;68864;44.972;19.612;2023-06-14T00:46:02;7.65;;;2.20;;
79414;SDS011;68864;44.972;19.612;2023-06-14T00:48:29;4.75;;;1.33;;
79414;SDS011;68864;44.972;19.612;2023-06-14T00:50:57;3.70;;;1.77;;
79414;SDS011;68864;44.972;19.612;2023-06-14T00:53:27;3.97;;;1.55;;
79414;SDS011;68864;44.972;19.612;2023-06-14T00:55:54;3.63;;;0.77;;
79414;SDS011;68864;44.972;19.612;2023-06-14T00:58:21;7.03;;;1.15;;
79414;SDS011;68864;44.972;19.612;2023-06-14T01:00:49;5.05;;;2.47;;
79414;SDS011;68864;44.972;19.612;2023-06-14T01:03:17;2.78;;;0.65;;
79414;SDS011;68864;44.972;19.612;2023-06-14T01:05:48;3.70;;;1.40;;
79414;SDS011;68864;44.972;19.612;2023-06-14T01:08:19;4.53;;;1.17;;
79414;SDS011;68864;44.972;19.612;2023-06-14T01:10:52;5.57;;;1.60;;
79414;SDS011;68864;44.972;19.612;2023-06-14T01:13:25;6.90;;;1.90;;
79414;SDS011;68864;44.972;19.612;2023-06-14T01:15:55;8.05;;;1.80;;
79414;SDS011;68864;44.972;19.612;2023-06-14T01:18:24;4.22;;;2.40;;
79414;SDS011;68864;44.972;19.612;2023-06-14T01:20:51;4.80;;;1.42;;
79414;SDS011;68864;44.972;19.612;2023-06-14T01:23:21;5.00;;;1.15;;
79414;SDS011;68864;44.972;19.612;2023-06-14T01:25:50;7.25;;;1.90;;
79414;SDS011;68864;44.972;19.612;2023-06-14T01:28:19;4.90;;;2.03;;
79414;SDS011;68864;44.972;19.612;2023-06-14T01:30:47;6.03;;;1.33;;
79414;SDS011;68864;44.972;19.612;2023-06-14T01:33:17;5.45;;;1.95;;
79414;SDS011;68864;44.972;19.612;2023-06-14T01:35:47;4.72;;;1.20;;
79414;SDS011;68864;44.972;19.612;2023-06-14T01:38:14;5.90;;;1.98;;
79414;SDS011;68864;44.972;19.612;2023-06-14T01:40:43;6.18;;;2.08;;
79414;SDS011;68864;44.972;19.612;2023-06-14T01:43:10;6.88;;;1.65;;
79414;SDS011;68864;44.972;19.612;2023-06-14T01:45:40;5.13;;;2.25;;
79414;SDS011;68864;44.972;19.612;2023-06-14T01:48:07;6.20;;;1.65;;
79414;SDS011;68864;44.972;19.612;2023-06-14T01:53:01;4.35;;;1.65;;
79414;SDS011;68864;44.972;19.612;2023-06-14T01:55:28;3.33;;;1.25;;
79414;SDS011;68864;44.972;19.612;2023-06-14T01:57:56;5.90;;;1.25;;
79414;SDS011;68864;44.972;19.612;2023-06-14T02:00:23;3.45;;;0.80;;
79414;SDS011;68864;44.972;19.612;2023-06-14T02:02:50;4.55;;;0.60;;
79414;SDS011;68864;44.972;19.612;2023-06-14T02:05:17;3.50;;;1.27;;
79414;SDS011;68864;44.972;19.612;2023-06-14T02:07:45;4.93;;;0.95;;
79414;SDS011;68864;44.972;19.612;2023-06-14T02:10:11;4.40;;;2.08;;
79414;SDS011;68864;44.972;19.612;2023-06-14T02:15:07;4.13;;;1.50;;
79414;SDS011;68864;44.972;19.612;2023-06-14T02:17:35;4.32;;;1.30;;
79414;SDS011;68864;44.972;19.612;2023-06-14T02:22:30;2.70;;;0.95;;
79414;SDS011;68864;44.972;19.612;2023-06-14T02:24:57;2.70;;;0.93;;
79414;SDS011;68864;44.972;19.612;2023-06-14T02:27:23;3.13;;;1.05;;
79414;SDS011;68864;44.972;19.612;2023-06-14T02:29:50;4.80;;;1.67;;
79414;SDS011;68864;44.972;19.612;2023-06-14T02:32:18;3.95;;;1.35;;
79414;SDS011;68864;44.972;19.612;2023-06-14T02:34:45;3.00;;;0.88;;
79414;SDS011;68864;44.972;19.612;2023-06-14T02:37:15;4.68;;;1.17;;
79414;SDS011;68864;44.972;19.612;2023-06-14T02:39:41;6.43;;;0.93;;
79414;SDS011;68864;44.972;19.612;2023-06-14T02:42:08;4.68;;;0.77;;
79414;SDS011;68864;44.972;19.612;2023-06-14T02:44:35;4.25;;;1.92;;
79414;SDS011;68864;44.972;19.612;2023-06-14T02:47:02;3.30;;;0.98;;
79414;SDS011;68864;44.972;19.612;2023-06-14T02:51:57;2.90;;;1.15;;
79414;SDS011;68864;44.972;19.612;2023-06-14T02:54:23;3.78;;;1.15;;
79414;SDS011;68864;44.972;19.612;2023-06-14T02:56:50;3.38;;;1.42;;
79414;SDS011;68864;44.972;19.612;2023-06-14T02:59:17;7.88;;;1.35;;
79414;SDS011;68864;44.972;19.612;2023-06-14T03:01:44;2.90;;;1.33;;
79414;SDS011;68864;44.972;19.612;2023-06-14T03:04:11;4.07;;;1.58;;
79414;SDS011;68864;44.972;19.612;2023-06-14T03:06:39;3.08;;;0.63;;
79414;SDS011;68864;44.972;19.612;2023-06-14T03:09:06;3.72;;;1.45;;
79414;SDS011;68864;44.972;19.612;2023-06-14T03:11:34;2.55;;;0.70;;
79414;SDS011;68864;44.972;19.612;2023-06-14T03:14:01;4.63;;;0.98;;
79414;SDS011;68864;44.972;19.612;2023-06-14T03:16:29;5.75;;;1.75;;
79414;SDS011;68864;44.972;19.612;2023-06-14T03:18:56;3.92;;;0.95;;
79414;SDS011;68864;44.972;19.612;2023-06-14T03:21:23;2.90;;;1.63;;
79414;SDS011;68864;44.972;19.612;2023-06-14T03:23:52;7.00;;;1.73;;
79414;SDS011;68864;44.972;19.612;2023-06-14T03:26:19;4.55;;;1.27;;
79414;SDS011;68864;44.972;19.612;2023-06-14T03:28:46;6.38;;;1.30;;
79414;SDS011;68864;44.972;19.612;2023-06-14T03:31:13;5.80;;;1.65;;
79414;SDS011;68864;44.972;19.612;2023-06-14T03:33:40;4.85;;;0.98;;
79414;SDS011;68864;44.972;19.612;2023-06-14T03:36:06;5.72;;;1.95;;
79414;SDS011;68864;44.972;19.612;2023-06-14T03:38:33;4.63;;;1.67;;
79414;SDS011;68864;44.972;19.612;2023-06-14T03:41:02;6.90;;;2.35;;
79414;SDS011;68864;44.972;19.612;2023-06-14T03:43:28;6.05;;;1.75;;
79414;SDS011;68864;44.972;19.612;2023-06-14T03:45:56;6.82;;;1.60;;
79414;SDS011;68864;44.972;19.612;2023-06-14T03:48:23;7.70;;;2.42;;
79414;SDS011;68864;44.972;19.612;2023-06-14T03:50:49;6.20;;;2.22;;
79414;SDS011;68864;44.972;19.612;2023-06-14T03:53:16;7.05;;;2.30;;
79414;SDS011;68864;44.972;19.612;2023-06-14T03:55:45;9.20;;;2.05;;
79414;SDS011;68864;44.972;19.612;2023-06-14T03:58:15;6.82;;;1.63;;
79414;SDS011;68864;44.972;19.612;2023-06-14T04:00:41;8.07;;;1.65;;
79414;SDS011;68864;44.972;19.612;2023-06-14T04:03:08;9.93;;;2.78;;
79414;SDS011;68864;44.972;19.612;2023-06-14T04:05:35;9.68;;;2.40;;
79414;SDS011;68864;44.972;19.612;2023-06-14T04:10:29;11.85;;;4.90;;
79414;SDS011;68864;44.972;19.612;2023-06-14T04:12:56;10.02;;;2.63;;
79414;SDS011;68864;44.972;19.612;2023-06-14T04:15:24;9.75;;;3.47;;
79414;SDS011;68864;44.972;19.612;2023-06-14T04:17:53;8.77;;;3.78;;
79414;SDS011;68864;44.972;19.612;2023-06-14T04:20:22;20.50;;;5.60;;
79414;SDS011;68864;44.972;19.612;2023-06-14T04:22:50;13.60;;;4.35;;
79414;SDS011;68864;44.972;19.612;2023-06-14T04:25:17;17.92;;;7.03;;
79414;SDS011;68864;44.972;19.612;2023-06-14T04:30:12;10.40;;;5.13;;
79414;SDS011;68864;44.972;19.612;2023-06-14T04:32:40;11.98;;;4.55;;
79414;SDS011;68864;44.972;19.612;2023-06-14T04:35:08;10.15;;;4.82;;
79414;SDS011;68864;44.972;19.612;2023-06-14T04:37:35;11.40;;;5.03;;
79414;SDS011;68864;44.972;19.612;2023-06-14T04:40:05;12.25;;;5.40;;
79414;SDS011;68864;44.972;19.612;2023-06-14T04:42:33;11.18;;;5.32;;
79414;SDS011;68864;44.972;19.612;2023-06-14T04:45:02;11.02;;;5.05;;
79414;SDS011;68864;44.972;19.612;2023-06-14T04:49:57;13.52;;;3.00;;
79414;SDS011;68864;44.972;19.612;2023-06-14T04:52:25;9.30;;;4.55;;
79414;SDS011;68864;44.972;19.612;2023-06-14T04:54:54;10.77;;;3.85;;
79414;SDS011;68864;44.972;19.612;2023-06-14T04:57:21;9.73;;;3.80;;
79414;SDS011;68864;44.972;19.612;2023-06-14T04:59:50;9.85;;;4.38;;
79414;SDS011;68864;44.972;19.612;2023-06-14T05:02:20;7.72;;;3.45;;
79414;SDS011;68864;44.972;19.612;2023-06-14T05:04:47;9.48;;;3.78;;
79414;SDS011;68864;44.972;19.612;2023-06-14T05:07:15;8.63;;;4.97;;
79414;SDS011;68864;44.972;19.612;2023-06-14T05:09:42;6.63;;;2.97;;
79414;SDS011;68864;44.972;19.612;2023-06-14T05:12:08;10.65;;;4.30;;
79414;SDS011;68864;44.972;19.612;2023-06-14T05:14:36;8.45;;;3.92;;
79414;SDS011;68864;44.972;19.612;2023-06-14T05:17:02;6.88;;;3.25;;
79414;SDS011;68864;44.972;19.612;2023-06-14T05:19:29;9.70;;;3.05;;
79414;SDS011;68864;44.972;19.612;2023-06-14T05:21:56;11.93;;;3.97;;
79414;SDS011;68864;44.972;19.612;2023-06-14T05:24:24;8.05;;;4.68;;
79414;SDS011;68864;44.972;19.612;2023-06-14T05:26:51;9.27;;;3.78;;
79414;SDS011;68864;44.972;19.612;2023-06-14T05:29:18;7.20;;;2.80;;
79414;SDS011;68864;44.972;19.612;2023-06-14T05:31:45;7.65;;;3.53;;
79414;SDS011;68864;44.972;19.612;2023-06-14T05:34:11;13.23;;;4.55;;
79414;SDS011;68864;44.972;19.612;2023-06-14T05:36:38;10.93;;;3.60;;
79414;SDS011;68864;44.972;19.612;2023-06-14T05:39:05;8.15;;;2.95;;
79414;SDS011;68864;44.972;19.612;2023-06-14T05:41:33;8.30;;;4.53;;
79414;SDS011;68864;44.972;19.612;2023-06-14T05:44:00;6.57;;;2.42;;
79414;SDS011;68864;44.972;19.612;2023-06-14T05:46:27;6.93;;;3.60;;
79414;SDS011;68864;44.972;19.612;2023-06-14T05:48:55;8.82;;;3.95;;
79414;SDS011;68864;44.972;19.612;2023-06-14T05:51:22;8.40;;;3.25;;
79414;SDS011;68864;44.972;19.612;2023-06-14T05:53:50;13.18;;;6.60;;
79414;SDS011;68864;44.972;19.612;2023-06-14T05:56:17;11.07;;;3.80;;
79414;SDS011;68864;44.972;19.612;2023-06-14T05:58:45;11.18;;;5.07;;
79414;SDS011;68864;44.972;19.612;2023-06-14T06:01:13;13.05;;;5.72;;
79414;SDS011;68864;44.972;19.612;2023-06-14T06:03:40;15.27;;;7.35;;
79414;SDS011;68864;44.972;19.612;2023-06-14T06:06:06;17.52;;;6.38;;
79414;SDS011;68864;44.972;19.612;2023-06-14T06:08:33;19.33;;;7.07;;
79414;SDS011;68864;44.972;19.612;2023-06-14T06:11:00;18.20;;;7.97;;
79414;SDS011;68864;44.972;19.612;2023-06-14T06:13:27;12.00;;;4.53;;
79414;SDS011;68864;44.972;19.612;2023-06-14T06:15:55;14.73;;;6.45;;
79414;SDS011;68864;44.972;19.612;2023-06-14T06:18:22;9.50;;;3.88;;
79414;SDS011;68864;44.972;19.612;2023-06-14T06:20:49;11.38;;;5.40;;
79414;SDS011;68864;44.972;19.612;2023-06-14T06:23:16;12.93;;;6.78;;
79414;SDS011;68864;44.972;19.612;2023-06-14T06:25:43;15.68;;;7.10;;
79414;SDS011;68864;44.972;19.612;2023-06-14T06:28:10;16.80;;;5.78;;
79414;SDS011;68864;44.972;19.612;2023-06-14T06:30:37;11.93;;;4.60;;
79414;SDS011;68864;44.972;19.612;2023-06-14T06:33:05;24.42;;;5.57;;
79414;SDS011;68864;44.972;19.612;2023-06-14T06:35:32;14.90;;;5.35;;
79414;SDS011;68864;44.972;19.612;2023-06-14T06:37:59;8.00;;;3.90;;
79414;SDS011;68864;44.972;19.612;2023-06-14T06:40:26;8.63;;;4.30;;
79414;SDS011;68864;44.972;19.612;2023-06-14T06:42:53;10.93;;;3.70;;
79414;SDS011;68864;44.972;19.612;2023-06-14T06:45:20;9.35;;;3.08;;
79414;SDS011;68864;44.972;19.612;2023-06-14T06:47:48;9.45;;;2.97;;
79414;SDS011;68864;44.972;19.612;2023-06-14T06:50:17;6.25;;;2.50;;
79414;SDS011;68864;44.972;19.612;2023-06-14T06:52:44;13.23;;;2.85;;
79414;SDS011;68864;44.972;19.612;2023-06-14T06:55:11;8.82;;;2.33;;
79414;SDS011;68864;44.972;19.612;2023-06-14T06:57:38;8.52;;;1.65;;
79414;SDS011;68864;44.972;19.612;2023-06-14T07:00:05;3.47;;;0.90;;
79414;SDS011;68864;44.972;19.612;2023-06-14T07:02:34;6.97;;;2.25;;
79414;SDS011;68864;44.972;19.612;2023-06-14T07:05:01;5.63;;;3.13;;
79414;SDS011;68864;44.972;19.612;2023-06-14T07:07:29;6.38;;;1.55;;
79414;SDS011;68864;44.972;19.612;2023-06-14T07:09:56;8.98;;;1.90;;
79414;SDS011;68864;44.972;19.612;2023-06-14T07:12:23;5.03;;;1.10;;
79414;SDS011;68864;44.972;19.612;2023-06-14T07:14:50;4.18;;;2.38;;
79414;SDS011;68864;44.972;19.612;2023-06-14T07:17:17;9.18;;;1.10;;
79414;SDS011;68864;44.972;19.612;2023-06-14T07:19:44;4.75;;;1.45;;
79414;SDS011;68864;44.972;19.612;2023-06-14T07:22:11;4.18;;;1.85;;
79414;SDS011;68864;44.972;19.612;2023-06-14T07:24:39;4.07;;;1.38;;
79414;SDS011;68864;44.972;19.612;2023-06-14T07:27:07;6.82;;;2.05;;
79414;SDS011;68864;44.972;19.612;2023-06-14T07:29:34;3.65;;;2.15;;
79414;SDS011;68864;44.972;19.612;2023-06-14T07:32:00;8.48;;;2.28;;
79414;SDS011;68864;44.972;19.612;2023-06-14T07:34:27;5.53;;;1.23;;
79414;SDS011;68864;44.972;19.612;2023-06-14T07:36:54;4.45;;;1.67;;
79414;SDS011;68864;44.972;19.612;2023-06-14T07:39:21;6.38;;;1.23;;
79414;SDS011;68864;44.972;19.612;2023-06-14T07:41:49;5.93;;;1.77;;
79414;SDS011;68864;44.972;19.612;2023-06-14T07:44:16;4.45;;;1.30;;
79414;SDS011;68864;44.972;19.612;2023-06-14T07:49:11;5.03;;;2.83;;
79414;SDS011;68864;44.972;19.612;2023-06-14T07:51:38;4.10;;;1.65;;
79414;SDS011;68864;44.972;19.612;2023-06-14T07:54:05;4.70;;;1.33;;
79414;SDS011;68864;44.972;19.612;2023-06-14T07:56:32;9.45;;;3.50;;
79414;SDS011;68864;44.972;19.612;2023-06-14T08:01:27;4.65;;;1.85;;
79414;SDS011;68864;44.972;19.612;2023-06-14T08:06:20;9.10;;;2.22;;
79414;SDS011;68864;44.972;19.612;2023-06-14T08:11:14;4.45;;;1.60;;
79414;SDS011;68864;44.972;19.612;2023-06-14T08:13:40;4.97;;;1.48;;
79414;SDS011;68864;44.972;19.612;2023-06-14T08:16:09;4.53;;;1.20;;
79414;SDS011;68864;44.972;19.612;2023-06-14T08:18:35;5.53;;;1.45;;
79414;SDS011;68864;44.972;19.612;2023-06-14T08:23:29;3.10;;;1.08;;
79414;SDS011;68864;44.972;19.612;2023-06-14T08:28:23;5.28;;;1.38;;
79414;SDS011;68864;44.972;19.612;2023-06-14T08:30:50;6.85;;;1.38;;
79414;SDS011;68864;44.972;19.612;2023-06-14T08:35:45;6.35;;;1.25;;
79414;SDS011;68864;44.972;19.612;2023-06-14T08:40:38;7.43;;;2.05;;
79414;SDS011;68864;44.972;19.612;2023-06-14T08:43:07;2.88;;;0.75;;
79414;SDS011;68864;44.972;19.612;2023-06-14T08:45:34;3.00;;;1.33;;
79414;SDS011;68864;44.972;19.612;2023-06-14T08:48:02;3.83;;;1.00;;
79414;SDS011;68864;44.972;19.612;2023-06-14T08:50:32;10.27;;;1.98;;
79414;SDS011;68864;44.972;19.612;2023-06-14T08:52:59;4.32;;;1.73;;
79414;SDS011;68864;44.972;19.612;2023-06-14T08:55:28;3.83;;;0.73;;
79414;SDS011;68864;44.972;19.612;2023-06-14T08:57:56;4.95;;;1.63;;
79414;SDS011;68864;44.972;19.612;2023-06-14T09:00:24;5.35;;;1.38;;
79414;SDS011;68864;44.972;19.612;2023-06-14T09:02:51;4.85;;;1.60;;
79414;SDS011;68864;44.972;19.612;2023-06-14T09:05:22;6.60;;;1.15;;
79414;SDS011;68864;44.972;19.612;2023-06-14T09:07:52;3.80;;;0.88;;
79414;SDS011;68864;44.972;19.612;2023-06-14T09:10:21;4.75;;;0.63;;
79414;SDS011;68864;44.972;19.612;2023-06-14T09:12:50;4.90;;;1.20;;
79414;SDS011;68864;44.972;19.612;2023-06-14T09:15:17;4.32;;;2.08;;
79414;SDS011;68864;44.972;19.612;2023-06-14T09:17:45;3.85;;;1.42;;
79414;SDS011;68864;44.972;19.612;2023-06-14T09:20:12;3.45;;;1.27;;
79414;SDS011;68864;44.972;19.612;2023-06-14T09:22:43;4.90;;;2.03;;
79414;SDS011;68864;44.972;19.612;2023-06-14T09:25:11;3.05;;;1.92;;
79414;SDS011;68864;44.972;19.612;2023-06-14T09:27:40;4.88;;;0.93;;
79414;SDS011;68864;44.972;19.612;2023-06-14T09:30:08;6.18;;;1.80;;
79414;SDS011;68864;44.972;19.612;2023-06-14T09:32:36;5.55;;;0.52;;
79414;SDS011;68864;44.972;19.612;2023-06-14T09:35:05;3.75;;;0.93;;
79414;SDS011;68864;44.972;19.612;2023-06-14T09:37:33;7.50;;;1.00;;
79414;SDS011;68864;44.972;19.612;2023-06-14T09:40:01;5.90;;;1.90;;
79414;SDS011;68864;44.972;19.612;2023-06-14T09:42:31;6.20;;;1.58;;
79414;SDS011;68864;44.972;19.612;2023-06-14T09:45:00;3.90;;;1.52;;
79414;SDS011;68864;44.972;19.612;2023-06-14T09:47:29;7.38;;;0.93;;
79414;SDS011;68864;44.972;19.612;2023-06-14T09:52:24;10.32;;;1.30;;
79414;SDS011;68864;44.972;19.612;2023-06-14T09:54:51;3.35;;;0.95;;
79414;SDS011;68864;44.972;19.612;2023-06-14T09:57:20;4.03;;;0.82;;
79414;SDS011;68864;44.972;19.612;2023-06-14T09:59:52;3.78;;;1.00;;
79414;SDS011;68864;44.972;19.612;2023-06-14T10:02:21;4.60;;;1.60;;
79414;SDS011;68864;44.972;19.612;2023-06-14T10:04:53;3.10;;;0.88;;
79414;SDS011;68864;44.972;19.612;2023-06-14T10:07:26;4.20;;;0.82;;
79414;SDS011;68864;44.972;19.612;2023-06-14T10:09:55;3.30;;;1.33;;
79414;SDS011;68864;44.972;19.612;2023-06-14T10:12:22;5.10;;;1.85;;
79414;SDS011;68864;44.972;19.612;2023-06-14T10:17:20;6.53;;;2.00;;
79414;SDS011;68864;44.972;19.612;2023-06-14T10:19:54;4.47;;;0.93;;
79414;SDS011;68864;44.972;19.612;2023-06-14T10:24:55;9.88;;;1.20;;
79414;SDS011;68864;44.972;19.612;2023-06-14T10:27:22;4.32;;;0.93;;
79414;SDS011;68864;44.972;19.612;2023-06-14T10:30:04;7.10;;;1.27;;
79414;SDS011;68864;44.972;19.612;2023-06-14T10:32:33;4.75;;;1.38;;
79414;SDS011;68864;44.972;19.612;2023-06-14T10:35:01;3.50;;;1.45;;
79414;SDS011;68864;44.972;19.612;2023-06-14T10:37:31;4.63;;;1.38;;
79414;SDS011;68864;44.972;19.612;2023-06-14T10:39:58;4.40;;;1.20;;
79414;SDS011;68864;44.972;19.612;2023-06-14T10:44:54;5.80;;;1.25;;
79414;SDS011;68864;44.972;19.612;2023-06-14T10:47:24;3.42;;;0.93;;
79414;SDS011;68864;44.972;19.612;2023-06-14T10:49:53;4.20;;;0.77;;
79414;SDS011;68864;44.972;19.612;2023-06-14T10:52:21;7.80;;;2.22;;
79414;SDS011;68864;44.972;19.612;2023-06-14T10:55:00;7.45;;;0.57;;
79414;SDS011;68864;44.972;19.612;2023-06-14T10:57:36;6.68;;;1.40;;
79414;SDS011;68864;44.972;19.612;2023-06-14T11:00:06;3.42;;;1.40;;
79414;SDS011;68864;44.972;19.612;2023-06-14T11:05:53;10.45;;;1.90;;
79414;SDS011;68864;44.972;19.612;2023-06-14T11:11:32;6.07;;;1.45;;
79414;SDS011;68864;44.972;19.612;2023-06-14T11:14:00;6.38;;;1.30;;
79414;SDS011;68864;44.972;19.612;2023-06-14T11:16:27;4.82;;;1.55;;
79414;SDS011;68864;44.972;19.612;2023-06-14T11:18:54;9.32;;;2.05;;
79414;SDS011;68864;44.972;19.612;2023-06-14T11:21:23;6.45;;;1.20;;
79414;SDS011;68864;44.972;19.612;2023-06-14T11:23:56;4.53;;;1.75;;
79414;SDS011;68864;44.972;19.612;2023-06-14T11:26:26;9.88;;;3.55;;
79414;SDS011;68864;44.972;19.612;2023-06-14T11:28:58;6.82;;;1.63;;
79414;SDS011;68864;44.972;19.612;2023-06-14T11:31:25;5.03;;;1.63;;
79414;SDS011;68864;44.972;19.612;2023-06-14T11:33:53;13.40;;;4.13;;
79414;SDS011;68864;44.972;19.612;2023-06-14T11:36:20;7.45;;;2.38;;
79414;SDS011;68864;44.972;19.612;2023-06-14T11:38:48;5.18;;;1.63;;
79414;SDS011;68864;44.972;19.612;2023-06-14T11:41:15;4.40;;;1.40;;
79414;SDS011;68864;44.972;19.612;2023-06-14T11:46:12;3.58;;;2.28;;
79414;SDS011;68864;44.972;19.612;2023-06-14T11:48:41;4.55;;;0.90;;
79414;SDS011;68864;44.972;19.612;2023-06-14T11:51:08;5.80;;;1.40;;
79414;SDS011;68864;44.972;19.612;2023-06-14T11:53:36;5.72;;;1.48;;
79414;SDS011;68864;44.972;19.612;2023-06-14T11:56:05;11.68;;;2.25;;
79414;SDS011;68864;44.972;19.612;2023-06-14T11:58:32;3.08;;;0.77;;
79414;SDS011;68864;44.972;19.612;2023-06-14T12:03:25;5.05;;;1.35;;
79414;SDS011;68864;44.972;19.612;2023-06-14T12:06:06;3.42;;;2.10;;
79414;SDS011;68864;44.972;19.612;2023-06-14T12:08:34;5.68;;;1.25;;
79414;SDS011;68864;44.972;19.612;2023-06-14T12:11:05;5.35;;;1.33;;
79414;SDS011;68864;44.972;19.612;2023-06-14T12:13:33;4.40;;;1.10;;
79414;SDS011;68864;44.972;19.612;2023-06-14T12:16:01;6.38;;;1.52;;
79414;SDS011;68864;44.972;19.612;2023-06-14T12:18:31;3.85;;;1.40;;
79414;SDS011;68864;44.972;19.612;2023-06-14T12:20:59;7.95;;;1.00;;
79414;SDS011;68864;44.972;19.612;2023-06-14T12:23:38;5.05;;;1.40;;
79414;SDS011;68864;44.972;19.612;2023-06-14T12:26:06;6.32;;;1.17;;
79414;SDS011;68864;44.972;19.612;2023-06-14T12:28:33;3.75;;;1.48;;
79414;SDS011;68864;44.972;19.612;2023-06-14T12:33:26;4.55;;;1.13;;
79414;SDS011;68864;44.972;19.612;2023-06-14T12:35:54;5.05;;;0.70;;
79414;SDS011;68864;44.972;19.612;2023-06-14T12:38:22;5.85;;;1.00;;
79414;SDS011;68864;44.972;19.612;2023-06-14T12:40:49;3.88;;;1.42;;
79414;SDS011;68864;44.972;19.612;2023-06-14T12:43:17;7.47;;;1.45;;
79414;SDS011;68864;44.972;19.612;2023-06-14T12:45:44;4.82;;;1.08;;
79414;SDS011;68864;44.972;19.612;2023-06-14T12:48:11;5.80;;;1.50;;
79414;SDS011;68864;44.972;19.612;2023-06-14T12:53:04;4.75;;;2.60;;
79414;SDS011;68864;44.972;19.612;2023-06-14T12:55:31;7.70;;;2.53;;
79414;SDS011;68864;44.972;19.612;2023-06-14T12:57:58;6.88;;;1.63;;
79414;SDS011;68864;44.972;19.612;2023-06-14T13:00:26;5.65;;;1.38;;
79414;SDS011;68864;44.972;19.612;2023-06-14T13:02:55;9.48;;;1.83;;
79414;SDS011;68864;44.972;19.612;2023-06-14T13:05:21;8.77;;;2.05;;
79414;SDS011;68864;44.972;19.612;2023-06-14T13:10:15;7.43;;;1.83;;
79414;SDS011;68864;44.972;19.612;2023-06-14T13:12:42;6.25;;;1.83;;
79414;SDS011;68864;44.972;19.612;2023-06-14T13:15:09;9.50;;;2.97;;
79414;SDS011;68864;44.972;19.612;2023-06-14T13:17:37;3.72;;;1.65;;
79414;SDS011;68864;44.972;19.612;2023-06-14T13:20:05;7.18;;;2.55;;
79414;SDS011;68864;44.972;19.612;2023-06-14T13:22:32;3.90;;;1.88;;
79414;SDS011;68864;44.972;19.612;2023-06-14T13:27:25;5.05;;;0.77;;
79414;SDS011;68864;44.972;19.612;2023-06-14T13:29:52;9.27;;;2.03;;
79414;SDS011;68864;44.972;19.612;2023-06-14T13:34:48;11.27;;;3.22;;
79414;SDS011;68864;44.972;19.612;2023-06-14T13:37:15;6.57;;;2.40;;
79414;SDS011;68864;44.972;19.612;2023-06-14T13:39:42;6.07;;;1.67;;
79414;SDS011;68864;44.972;19.612;2023-06-14T13:42:09;9.32;;;2.10;;
79414;SDS011;68864;44.972;19.612;2023-06-14T13:44:35;7.28;;;2.65;;
79414;SDS011;68864;44.972;19.612;2023-06-14T13:47:02;6.28;;;2.42;;
79414;SDS011;68864;44.972;19.612;2023-06-14T13:49:29;4.05;;;1.88;;
79414;SDS011;68864;44.972;19.612;2023-06-14T13:54:24;4.07;;;1.33;;
79414;SDS011;68864;44.972;19.612;2023-06-14T13:56:51;3.65;;;2.13;;
79414;SDS011;68864;44.972;19.612;2023-06-14T13:59:18;5.72;;;1.25;;
79414;SDS011;68864;44.972;19.612;2023-06-14T14:01:45;3.40;;;1.15;;
79414;SDS011;68864;44.972;19.612;2023-06-14T14:04:12;4.60;;;1.33;;
79414;SDS011;68864;44.972;19.612;2023-06-14T14:06:39;4.30;;;0.88;;
79414;SDS011;68864;44.972;19.612;2023-06-14T14:09:07;4.43;;;0.75;;
79414;SDS011;68864;44.972;19.612;2023-06-14T14:11:34;5.13;;;1.48;;
79414;SDS011;68864;44.972;19.612;2023-06-14T14:14:01;7.95;;;0.98;;
79414;SDS011;68864;44.972;19.612;2023-06-14T14:18:55;8.27;;;0.77;;
79414;SDS011;68864;44.972;19.612;2023-06-14T14:23:48;4.43;;;1.48;;
79414;SDS011;68864;44.972;19.612;2023-06-14T14:26:16;8.32;;;0.80;;
79414;SDS011;68864;44.972;19.612;2023-06-14T14:28:43;6.32;;;1.83;;
79414;SDS011;68864;44.972;19.612;2023-06-14T14:31:10;4.50;;;1.35;;
79414;SDS011;68864;44.972;19.612;2023-06-14T14:36:03;6.53;;;1.90;;
79414;SDS011;68864;44.972;19.612;2023-06-14T14:38:32;4.50;;;0.98;;
79414;SDS011;68864;44.972;19.612;2023-06-14T14:40:58;5.65;;;1.85;;
79414;SDS011;68864;44.972;19.612;2023-06-14T14:43:26;5.10;;;1.35;;
79414;SDS011;68864;44.972;19.612;2023-06-14T14:45:55;6.47;;;0.98;;
79414;SDS011;68864;44.972;19.612;2023-06-14T14:50:49;7.72;;;1.70;;
79414;SDS011;68864;44.972;19.612;2023-06-14T14:55:42;5.57;;;1.25;;
79414;SDS011;68864;44.972;19.612;2023-06-14T14:58:09;5.72;;;1.40;;
79414;SDS011;68864;44.972;19.612;2023-06-14T15:03:04;8.25;;;2.25;;
79414;SDS011;68864;44.972;19.612;2023-06-14T15:05:31;5.00;;;1.35;;
79414;SDS011;68864;44.972;19.612;2023-06-14T15:10:24;3.85;;;1.17;;
79414;SDS011;68864;44.972;19.612;2023-06-14T15:15:18;4.95;;;1.42;;
79414;SDS011;68864;44.972;19.612;2023-06-14T15:17:46;11.70;;;4.55;;
79414;SDS011;68864;44.972;19.612;2023-06-14T15:20:12;8.25;;;2.75;;
79414;SDS011;68864;44.972;19.612;2023-06-14T15:22:40;4.45;;;1.42;;
79414;SDS011;68864;44.972;19.612;2023-06-14T15:25:07;5.57;;;1.35;;
79414;SDS011;68864;44.972;19.612;2023-06-14T15:27:34;3.50;;;1.52;;
79414;SDS011;68864;44.972;19.612;2023-06-14T15:32:28;6.75;;;1.58;;
79414;SDS011;68864;44.972;19.612;2023-06-14T15:34:56;5.60;;;1.77;;
79414;SDS011;68864;44.972;19.612;2023-06-14T15:37:23;6.50;;;1.55;;
79414;SDS011;68864;44.972;19.612;2023-06-14T15:42:16;6.22;;;1.92;;
79414;SDS011;68864;44.972;19.612;2023-06-14T15:44:43;5.70;;;1.92;;
79414;SDS011;68864;44.972;19.612;2023-06-14T15:47:11;4.78;;;2.35;;
79414;SDS011;68864;44.972;19.612;2023-06-14T15:49:38;3.50;;;1.50;;
79414;SDS011;68864;44.972;19.612;2023-06-14T15:52:07;4.10;;;1.80;;
79414;SDS011;68864;44.972;19.612;2023-06-14T15:54:34;6.30;;;1.42;;
79414;SDS011;68864;44.972;19.612;2023-06-14T15:57:00;5.10;;;1.90;;
79414;SDS011;68864;44.972;19.612;2023-06-14T15:59:27;4.35;;;2.60;;
79414;SDS011;68864;44.972;19.612;2023-06-14T16:04:20;3.67;;;1.80;;
79414;SDS011;68864;44.972;19.612;2023-06-14T16:06:47;5.72;;;1.58;;
79414;SDS011;68864;44.972;19.612;2023-06-14T16:09:15;7.22;;;2.08;;
79414;SDS011;68864;44.972;19.612;2023-06-14T16:11:42;4.13;;;1.65;;
79414;SDS011;68864;44.972;19.612;2023-06-14T16:14:09;7.60;;;3.30;;
79414;SDS011;68864;44.972;19.612;2023-06-14T16:19:02;7.07;;;1.63;;